createdAt,value
2023-01-12T00:01:54.167Z,18.05
2023-01-12T00:04:21.378Z,17.98
2023-01-12T00:06:48.885Z,19.65
2023-01-12T00:09:15.947Z,16.98
2023-01-12T00:11:43.979Z,18.23
2023-01-12T00:14:11.151Z,19.40
2023-01-12T00:16:38.603Z,18.25
2023-01-12T00:19:13.227Z,19.08
2023-01-12T00:21:56.550Z,17.85
2023-01-12T00:24:24.658Z,19.10
2023-01-12T00:26:53.334Z,19.80
2023-01-12T00:29:21.407Z,19.85
2023-01-12T00:31:48.770Z,19.70
2023-01-12T00:34:16.554Z,20.38
2023-01-12T00:36:45.475Z,20.75
2023-01-12T00:39:13.393Z,20.17
2023-01-12T00:41:59.964Z,19.67
2023-01-12T00:45:02.578Z,18.95
2023-01-12T00:47:29.839Z,19.27
2023-01-12T00:49:57.541Z,20.10
2023-01-12T00:52:30.823Z,19.85
2023-01-12T00:54:59.703Z,19.75
2023-01-12T00:57:28.525Z,20.52
2023-01-12T00:59:58.242Z,20.38
2023-01-12T01:02:28.946Z,20.30
2023-01-12T01:04:56.499Z,21.50
2023-01-12T01:07:24.545Z,19.75
2023-01-12T01:09:51.870Z,21.30
2023-01-12T01:12:19.624Z,19.55
2023-01-12T01:14:47.760Z,22.23
2023-01-12T01:17:15.407Z,20.48
2023-01-12T01:19:43.625Z,21.13
2023-01-12T01:22:12.992Z,20.85
2023-01-12T01:24:41.572Z,20.63
2023-01-12T01:27:09.376Z,21.27
2023-01-12T01:29:36.732Z,21.52
2023-01-12T01:32:04.385Z,21.25
2023-01-12T01:34:31.858Z,22.08
2023-01-12T01:36:59.413Z,18.17
2023-01-12T01:39:26.495Z,21.05
2023-01-12T01:41:53.866Z,20.45
2023-01-12T01:44:29.969Z,20.90
2023-01-12T01:47:11.113Z,22.15
2023-01-12T01:49:44.769Z,19.85
2023-01-12T01:52:34.974Z,20.05
2023-01-12T01:55:19.581Z,19.73
2023-01-12T01:57:53.759Z,20.73
2023-01-12T02:00:21.177Z,19.38
2023-01-12T02:02:48.952Z,20.17
2023-01-12T02:05:20.150Z,19.75
2023-01-12T02:07:49.739Z,18.25
2023-01-12T02:10:18.037Z,19.80
2023-01-12T02:13:04.701Z,19.33
2023-01-12T02:16:03.677Z,19.58
2023-01-12T02:18:43.562Z,19.58
2023-01-12T02:21:16.740Z,19.52
2023-01-12T02:24:06.003Z,21.58
2023-01-12T02:26:49.416Z,20.23
2023-01-12T02:29:55.033Z,20.08
2023-01-12T02:32:39.932Z,18.40
2023-01-12T02:35:40.524Z,21.98
2023-01-12T02:38:47.690Z,19.02
2023-01-12T02:41:45.146Z,20.85
2023-01-12T02:44:31.121Z,20.27
2023-01-12T02:47:00.628Z,20.60
2023-01-12T02:49:31.356Z,20.58
2023-01-12T02:52:03.863Z,17.90
2023-01-12T02:54:33.003Z,19.60
2023-01-12T02:57:07.359Z,21.33
2023-01-12T02:59:40.382Z,19.08
2023-01-12T03:02:18.493Z,20.35
2023-01-12T03:04:45.762Z,19.77
2023-01-12T03:07:29.079Z,18.83
2023-01-12T03:10:06.968Z,19.73
2023-01-12T03:12:37.077Z,20.48
2023-01-12T03:15:08.407Z,19.67
2023-01-12T03:17:49.763Z,19.02
2023-01-12T03:20:20.326Z,20.17
2023-01-12T03:22:51.502Z,21.10
2023-01-12T03:25:20.565Z,19.92
2023-01-12T03:27:54.575Z,19.08
2023-01-12T03:30:25.598Z,19.40
2023-01-12T03:32:53.020Z,21.35
2023-01-12T03:35:26.660Z,19.63
2023-01-12T03:38:04.877Z,19.05
2023-01-12T03:40:45.925Z,20.10
2023-01-12T03:43:17.906Z,20.77
2023-01-12T03:46:04.174Z,21.60
2023-01-12T03:48:38.073Z,19.77
2023-01-12T03:51:12.795Z,19.83
2023-01-12T03:53:43.092Z,19.33
2023-01-12T03:56:12.447Z,21.27
2023-01-12T03:58:40.681Z,21.88
2023-01-12T04:01:07.818Z,20.08
2023-01-12T04:03:35.472Z,22.63
2023-01-12T04:06:02.700Z,20.33
2023-01-12T04:08:30.203Z,21.23
2023-01-12T04:10:57.343Z,20.85
2023-01-12T04:13:24.703Z,22.80
2023-01-12T04:15:51.737Z,22.52
2023-01-12T04:18:19.045Z,22.63
2023-01-12T04:20:47.182Z,21.23
2023-01-12T04:23:14.445Z,21.58
2023-01-12T04:25:41.624Z,24.20
2023-01-12T04:28:08.931Z,22.15
2023-01-12T04:30:36.004Z,22.25
2023-01-12T04:33:08.231Z,23.55
2023-01-12T04:35:35.441Z,22.73
2023-01-12T04:38:07.889Z,22.65
2023-01-12T04:40:34.980Z,22.92
2023-01-12T04:43:06.305Z,22.67
2023-01-12T04:45:40.852Z,22.73
2023-01-12T04:48:11.434Z,23.65
2023-01-12T04:50:39.281Z,23.60
2023-01-12T04:53:09.869Z,23.63
2023-01-12T04:55:38.649Z,21.92
2023-01-12T04:58:06.327Z,21.98
2023-01-12T05:00:33.855Z,24.33
2023-01-12T05:03:02.523Z,23.65
2023-01-12T05:05:31.718Z,23.13
2023-01-12T05:08:19.891Z,23.00
2023-01-12T05:10:54.873Z,22.50
2023-01-12T05:13:23.166Z,24.95
2023-01-12T05:15:50.199Z,24.23
2023-01-12T05:18:17.526Z,23.48
2023-01-12T05:20:44.709Z,24.45
2023-01-12T05:23:12.157Z,23.40
2023-01-12T05:25:39.201Z,24.35
2023-01-12T05:28:06.844Z,23.30
2023-01-12T05:30:33.973Z,25.02
2023-01-12T05:33:01.302Z,23.33
2023-01-12T05:35:28.311Z,24.10
2023-01-12T05:37:56.681Z,23.85
2023-01-12T05:40:23.914Z,27.33
2023-01-12T05:43:10.476Z,23.63
2023-01-12T05:45:37.947Z,23.63
2023-01-12T05:48:05.873Z,26.02
2023-01-12T05:50:33.099Z,25.38
2023-01-12T05:53:10.320Z,27.63
2023-01-12T05:55:38.292Z,25.40
2023-01-12T05:58:05.835Z,23.20
2023-01-12T06:00:32.963Z,25.75
2023-01-12T06:03:02.567Z,25.83
2023-01-12T06:05:29.789Z,25.80
2023-01-12T06:07:57.789Z,27.70
2023-01-12T06:10:24.847Z,25.73
2023-01-12T06:13:18.667Z,24.77
2023-01-12T06:15:45.919Z,25.17
2023-01-12T06:18:13.264Z,24.70
2023-01-12T06:20:40.415Z,24.13
2023-01-12T06:23:07.694Z,24.35
2023-01-12T06:25:34.807Z,26.60
2023-01-12T06:28:02.185Z,22.73
2023-01-12T06:30:29.261Z,26.25
2023-01-12T06:33:00.827Z,34.35
2023-01-12T06:35:27.878Z,27.42
2023-01-12T06:37:58.058Z,24.80
2023-01-12T06:40:25.208Z,24.58
2023-01-12T06:42:52.767Z,27.83
2023-01-12T06:45:19.852Z,26.73
2023-01-12T06:47:52.200Z,35.58
2023-01-12T06:50:19.483Z,32.55
2023-01-12T06:52:46.927Z,33.15
2023-01-12T06:55:14.075Z,36.63
2023-01-12T06:57:41.699Z,26.13
2023-01-12T07:00:11.997Z,30.23
2023-01-12T07:02:39.725Z,27.17
2023-01-12T07:05:07.033Z,34.67
2023-01-12T07:07:34.544Z,28.95
2023-01-12T07:10:01.672Z,26.65
2023-01-12T07:12:29.122Z,31.23
2023-01-12T07:14:58.915Z,32.95
2023-01-12T07:17:26.199Z,36.70
2023-01-12T07:19:53.245Z,33.65
2023-01-12T07:22:20.517Z,28.17
2023-01-12T07:24:47.527Z,27.40
2023-01-12T07:27:15.043Z,32.28
2023-01-12T07:29:42.152Z,26.38
2023-01-12T07:32:09.485Z,29.50
2023-01-12T07:34:36.473Z,36.58
2023-01-12T07:37:03.826Z,28.10
2023-01-12T07:39:30.867Z,31.55
2023-01-12T07:42:16.963Z,37.05
2023-01-12T07:44:44.031Z,25.05
2023-01-12T07:47:11.359Z,26.88
2023-01-12T07:49:38.427Z,26.70
2023-01-12T07:52:05.925Z,33.10
2023-01-12T07:54:36.059Z,33.00
2023-01-12T07:57:03.982Z,24.67
2023-01-12T07:59:30.990Z,26.58
2023-01-12T08:01:58.379Z,41.58
2023-01-12T08:04:25.725Z,26.90
2023-01-12T08:06:53.326Z,29.25
2023-01-12T08:09:20.696Z,29.20
2023-01-12T08:11:48.079Z,28.75
2023-01-12T08:14:37.352Z,44.30
2023-01-12T08:17:09.914Z,47.70
2023-01-12T08:19:43.070Z,25.88
2023-01-12T08:22:16.550Z,36.63
2023-01-12T08:24:52.301Z,27.52
2023-01-12T08:27:23.263Z,37.37
2023-01-12T08:29:54.036Z,38.38
2023-01-12T08:32:21.567Z,38.60
2023-01-12T08:34:52.179Z,23.10
2023-01-12T08:37:23.074Z,24.30
2023-01-12T08:39:51.344Z,31.05
2023-01-12T08:42:20.307Z,30.45
2023-01-12T08:44:47.419Z,61.30
2023-01-12T08:47:27.118Z,27.05
2023-01-12T08:49:54.967Z,23.58
2023-01-12T08:52:25.218Z,22.00
2023-01-12T08:54:52.553Z,24.23
2023-01-12T08:57:19.955Z,48.38
2023-01-12T08:59:47.150Z,23.95
2023-01-12T09:02:16.062Z,26.63
2023-01-12T09:04:43.421Z,23.30
2023-01-12T09:07:11.722Z,24.92
2023-01-12T09:09:39.007Z,21.27
2023-01-12T09:12:08.802Z,22.95
2023-01-12T09:14:38.977Z,21.00
2023-01-12T09:17:07.553Z,24.65
2023-01-12T09:19:34.678Z,24.42
2023-01-12T09:22:02.102Z,21.80
2023-01-12T09:24:29.228Z,23.65
2023-01-12T09:26:56.649Z,21.65
2023-01-12T09:29:23.813Z,19.25
2023-01-12T09:31:51.251Z,19.35
2023-01-12T09:34:18.379Z,20.08
2023-01-12T09:36:46.097Z,19.98
2023-01-12T09:39:26.885Z,19.73
2023-01-12T09:42:15.225Z,20.08
2023-01-12T09:47:49.382Z,20.20
2023-01-12T09:50:28.294Z,19.88
2023-01-12T09:53:18.567Z,21.13
2023-01-12T09:56:10.075Z,19.27
2023-01-12T09:59:03.993Z,19.70
2023-01-12T10:01:31.406Z,20.52
2023-01-12T10:04:01.282Z,20.02
2023-01-12T10:06:29.031Z,20.35
2023-01-12T10:09:00.562Z,20.33
2023-01-12T10:11:52.688Z,25.20
2023-01-12T10:14:34.400Z,19.05
2023-01-12T10:17:19.882Z,22.40
2023-01-12T10:20:12.348Z,18.52
2023-01-12T10:22:46.184Z,18.73
2023-01-12T10:25:23.408Z,19.40
2023-01-12T10:30:32.272Z,18.40
2023-01-12T10:33:09.048Z,17.83
2023-01-12T10:35:36.671Z,17.70
2023-01-12T10:38:19.153Z,16.15
2023-01-12T10:41:17.924Z,17.85
2023-01-12T10:44:07.296Z,17.63
2023-01-12T10:46:35.976Z,17.65
2023-01-12T10:49:23.132Z,17.45
2023-01-12T10:54:27.914Z,16.33
2023-01-12T10:57:01.618Z,16.63
2023-01-12T10:59:39.990Z,15.73
2023-01-12T11:02:11.853Z,16.75
2023-01-12T11:04:42.124Z,16.05
2023-01-12T11:07:29.070Z,17.13
2023-01-12T11:10:19.187Z,17.40
2023-01-12T11:13:00.136Z,14.35
2023-01-12T11:15:29.005Z,13.48
2023-01-12T11:18:05.166Z,14.48
2023-01-12T11:20:47.825Z,12.15
2023-01-12T11:23:25.972Z,12.35
2023-01-12T11:25:54.099Z,11.45
2023-01-12T11:28:21.392Z,11.80
2023-01-12T11:31:20.452Z,12.27
2023-01-12T11:34:02.779Z,11.38
2023-01-12T11:36:54.712Z,11.13
2023-01-12T11:39:24.430Z,9.88
2023-01-12T11:42:15.458Z,11.82
2023-01-12T11:44:45.841Z,9.73
2023-01-12T11:47:24.995Z,10.15
2023-01-12T11:50:18.170Z,9.82
2023-01-12T11:52:45.802Z,9.57
2023-01-12T11:55:20.976Z,10.50
2023-01-12T11:57:47.938Z,9.40
2023-01-12T12:00:41.387Z,9.60
2023-01-12T12:03:36.282Z,10.95
2023-01-12T12:06:27.518Z,9.35
2023-01-12T12:09:27.612Z,8.90
2023-01-12T12:12:02.329Z,8.32
2023-01-12T12:15:11.765Z,9.02
2023-01-12T12:17:50.448Z,7.65
2023-01-12T12:20:23.687Z,8.80
2023-01-12T12:23:10.678Z,9.05
2023-01-12T12:25:44.830Z,8.27
2023-01-12T12:28:36.999Z,8.07
2023-01-12T12:31:21.061Z,8.82
2023-01-12T12:33:54.597Z,8.63
2023-01-12T12:36:30.064Z,7.28
2023-01-12T12:39:34.480Z,7.72
2023-01-12T12:42:35.210Z,7.88
2023-01-12T12:45:26.332Z,8.10
2023-01-12T12:47:59.335Z,7.90
2023-01-12T12:50:45.236Z,8.43
2023-01-12T12:53:24.960Z,7.45
2023-01-12T12:55:54.309Z,8.85
2023-01-12T12:58:21.397Z,8.88
2023-01-12T13:00:50.753Z,7.25
2023-01-12T13:03:39.833Z,8.10
2023-01-12T13:06:30.194Z,7.50
2023-01-12T13:09:04.638Z,7.28
2023-01-12T13:11:53.707Z,8.57
2023-01-12T13:14:34.777Z,7.38
2023-01-12T13:17:06.212Z,7.18
2023-01-12T13:19:43.250Z,6.70
2023-01-12T13:22:33.699Z,7.07
2023-01-12T13:25:24.305Z,6.82
2023-01-12T13:27:52.423Z,6.70
2023-01-12T13:30:28.635Z,6.88
2023-01-12T13:33:17.145Z,6.97
2023-01-12T13:35:45.114Z,5.90
2023-01-12T13:38:21.498Z,6.57
2023-01-12T13:40:55.846Z,6.60
2023-01-12T13:43:32.499Z,6.05
2023-01-12T13:46:06.250Z,6.03
2023-01-12T13:48:35.886Z,6.60
2023-01-12T13:51:12.775Z,6.70
2023-01-12T13:53:40.394Z,6.05
2023-01-12T13:56:18.626Z,5.72
2023-01-12T13:58:46.694Z,6.65
2023-01-12T14:01:17.792Z,7.13
2023-01-12T14:04:01.410Z,7.25
2023-01-12T14:06:48.261Z,8.85
2023-01-12T14:09:34.692Z,7.60
2023-01-12T14:12:27.971Z,8.50
2023-01-12T14:15:32.879Z,9.00
2023-01-12T14:18:09.539Z,9.35
2023-01-12T14:23:27.596Z,9.25
2023-01-12T14:26:07.047Z,14.50
2023-01-12T14:28:35.264Z,9.30
2023-01-12T14:31:04.620Z,9.13
2023-01-12T14:33:37.684Z,8.48
2023-01-12T14:36:12.137Z,8.63
2023-01-12T14:38:44.166Z,7.50
2023-01-12T14:41:36.833Z,7.25
2023-01-12T14:44:23.152Z,8.13
2023-01-12T14:46:53.531Z,7.90
2023-01-12T14:49:20.904Z,7.47
2023-01-12T14:52:00.228Z,7.40
2023-01-12T14:54:29.934Z,8.70
2023-01-12T14:57:18.082Z,7.57
2023-01-12T14:59:48.277Z,7.88
2023-01-12T15:02:18.372Z,8.35
2023-01-12T15:04:57.629Z,8.85
2023-01-12T15:07:29.163Z,11.93
2023-01-12T15:10:01.352Z,10.32
2023-01-12T15:12:28.673Z,11.85
2023-01-12T15:15:52.299Z,10.88
2023-01-12T15:18:38.788Z,12.27
2023-01-12T15:21:24.792Z,12.37
2023-01-12T15:24:11.053Z,16.50
2023-01-12T15:26:38.197Z,14.65
2023-01-12T15:29:05.503Z,22.77
2023-01-12T15:31:37.530Z,17.77
2023-01-12T15:34:06.392Z,27.90
2023-01-12T15:36:33.494Z,17.60
2023-01-12T15:39:00.843Z,14.00
2023-01-12T15:41:49.260Z,18.83
2023-01-12T15:44:21.867Z,12.82
2023-01-12T15:46:49.026Z,12.60
2023-01-12T15:49:17.037Z,14.57
2023-01-12T15:51:47.292Z,17.52
2023-01-12T15:54:18.512Z,17.17
2023-01-12T15:56:45.969Z,17.67
2023-01-12T15:59:13.504Z,18.75
2023-01-12T16:01:45.581Z,12.90
2023-01-12T16:04:41.416Z,13.52
2023-01-12T16:07:04.045Z,13.45
2023-01-12T16:09:31.354Z,16.10
2023-01-12T16:11:58.459Z,13.90
2023-01-12T16:14:26.200Z,11.88
2023-01-12T16:16:55.674Z,13.88
2023-01-12T16:19:23.874Z,12.07
2023-01-12T16:21:54.003Z,13.02
2023-01-12T16:24:21.628Z,14.05
2023-01-12T16:26:48.747Z,13.05
2023-01-12T16:29:16.542Z,12.82
2023-01-12T16:31:44.291Z,12.32
2023-01-12T16:34:11.827Z,13.00
2023-01-12T16:36:38.872Z,13.25
2023-01-12T16:39:06.205Z,13.20
2023-01-12T16:41:33.370Z,12.15
2023-01-12T16:44:00.709Z,12.90
2023-01-12T16:46:27.800Z,15.23
2023-01-12T16:48:56.326Z,11.43
2023-01-12T16:51:24.574Z,14.00
2023-01-12T16:53:55.193Z,13.65
2023-01-12T16:56:22.276Z,14.82
2023-01-12T16:58:49.598Z,12.13
2023-01-12T17:01:21.771Z,11.98
2023-01-12T17:03:50.991Z,14.40
2023-01-12T17:06:20.966Z,13.15
2023-01-12T17:08:48.653Z,15.25
2023-01-12T17:11:21.051Z,16.17
2023-01-12T17:13:57.142Z,13.43
2023-01-12T17:16:26.388Z,14.90
2023-01-12T17:18:54.445Z,13.63
2023-01-12T17:21:22.235Z,13.43
2023-01-12T17:23:49.995Z,12.35
2023-01-12T17:26:18.448Z,11.25
2023-01-12T17:28:46.934Z,15.45
2023-01-12T17:31:17.055Z,15.75
2023-01-12T17:33:44.744Z,13.20
2023-01-12T17:36:13.280Z,14.05
2023-01-12T17:38:40.978Z,12.27
2023-01-12T17:41:34.290Z,14.32
2023-01-12T17:44:04.123Z,14.52
2023-01-12T17:46:32.240Z,20.13
2023-01-12T17:49:02.192Z,16.25
2023-01-12T17:51:29.608Z,18.52
2023-01-12T17:53:58.668Z,15.52
2023-01-12T17:56:27.301Z,16.30
2023-01-12T17:58:55.600Z,15.18
2023-01-12T18:01:24.794Z,13.02
2023-01-12T18:03:52.487Z,17.02
2023-01-12T18:06:26.482Z,15.43
2023-01-12T18:08:56.567Z,14.68
2023-01-12T18:11:24.219Z,14.32
2023-01-12T18:13:51.634Z,14.95
2023-01-12T18:16:18.954Z,14.90
2023-01-12T18:18:46.397Z,15.38
2023-01-12T18:21:20.985Z,15.32
2023-01-12T18:23:50.494Z,15.35
2023-01-12T18:26:27.879Z,15.65
2023-01-12T18:28:57.188Z,15.23
2023-01-12T18:31:27.018Z,17.65
2023-01-12T18:34:05.117Z,14.52
2023-01-12T18:36:34.552Z,16.02
2023-01-12T18:39:02.266Z,18.30
2023-01-12T18:41:47.851Z,15.27
2023-01-12T18:44:15.211Z,17.10
2023-01-12T18:47:02.639Z,17.08
2023-01-12T18:49:33.383Z,20.92
2023-01-12T18:52:19.967Z,19.42
2023-01-12T18:54:48.123Z,19.58
2023-01-12T18:57:18.831Z,17.85
2023-01-12T18:59:51.539Z,20.15
2023-01-12T19:02:19.631Z,17.58
2023-01-12T19:04:50.308Z,17.25
2023-01-12T19:07:27.836Z,18.75
2023-01-12T19:09:56.324Z,18.48
2023-01-12T19:12:29.643Z,19.05
2023-01-12T19:15:15.687Z,17.77
2023-01-12T19:17:42.731Z,16.15
2023-01-12T19:20:15.919Z,17.38
2023-01-12T19:23:01.959Z,17.75
2023-01-12T19:25:48.483Z,19.55
2023-01-12T19:28:35.233Z,18.27
2023-01-12T19:31:15.064Z,17.33
2023-01-12T19:33:42.800Z,17.20
2023-01-12T19:36:14.163Z,16.20
2023-01-12T19:38:44.017Z,17.48
2023-01-12T19:41:14.155Z,18.38
2023-01-12T19:43:45.366Z,15.98
2023-01-12T19:46:13.269Z,18.05
2023-01-12T19:48:40.442Z,17.77
2023-01-12T19:51:11.002Z,18.77
2023-01-12T19:53:40.136Z,15.98
2023-01-12T19:56:11.872Z,18.60
2023-01-12T19:58:39.411Z,18.13
2023-01-12T20:01:07.505Z,18.27
2023-01-12T20:03:35.881Z,18.77
2023-01-12T20:06:07.654Z,18.70
2023-01-12T20:08:35.184Z,20.10
2023-01-12T20:11:05.089Z,17.85
2023-01-12T20:13:34.425Z,16.90
2023-01-12T20:16:09.959Z,19.77
2023-01-12T20:18:37.447Z,17.27
2023-01-12T20:21:11.767Z,15.70
2023-01-12T20:23:39.137Z,16.42
2023-01-12T20:26:08.162Z,16.70
2023-01-12T20:28:35.828Z,17.98
2023-01-12T20:31:13.074Z,19.40
2023-01-12T20:33:40.664Z,22.17
2023-01-12T20:36:13.110Z,15.68
2023-01-12T20:38:41.111Z,15.52
2023-01-12T20:41:10.128Z,15.63
2023-01-12T20:43:38.772Z,16.20
2023-01-12T20:46:10.621Z,15.52
2023-01-12T20:48:44.938Z,14.77
2023-01-12T20:51:15.453Z,14.48
2023-01-12T20:53:43.324Z,13.05
2023-01-12T20:56:10.825Z,12.73
2023-01-12T20:58:38.184Z,13.98
2023-01-12T21:01:15.352Z,12.80
2023-01-12T21:03:44.082Z,15.82
2023-01-12T21:06:17.842Z,12.57
2023-01-12T21:08:46.793Z,13.25
2023-01-12T21:11:16.784Z,14.05
2023-01-12T21:13:44.531Z,13.13
2023-01-12T21:16:14.972Z,13.88
2023-01-12T21:18:42.943Z,14.10
2023-01-12T21:21:10.981Z,13.55
2023-01-12T21:23:38.357Z,13.45
2023-01-12T21:26:08.930Z,12.65
2023-01-12T21:28:40.329Z,13.25
2023-01-12T21:31:10.639Z,14.32
2023-01-12T21:33:38.444Z,13.27
2023-01-12T21:36:05.906Z,13.20
2023-01-12T21:38:36.021Z,13.05
2023-01-12T21:41:05.555Z,12.70
2023-01-12T21:43:33.692Z,12.30
2023-01-12T21:46:10.138Z,12.25
2023-01-12T21:48:37.658Z,13.57
2023-01-12T21:51:07.450Z,11.77
2023-01-12T21:53:35.477Z,13.48
2023-01-12T21:56:04.853Z,13.05
2023-01-12T21:58:34.960Z,11.85
2023-01-12T22:01:08.764Z,11.75
2023-01-12T22:03:36.217Z,11.55
2023-01-12T22:06:12.349Z,11.68
2023-01-12T22:08:41.168Z,11.88
2023-01-12T22:11:10.898Z,12.40
2023-01-12T22:13:39.780Z,11.43
2023-01-12T22:16:09.682Z,11.80
2023-01-12T22:18:37.556Z,10.68
2023-01-12T22:21:07.725Z,11.10
2023-01-12T22:23:38.709Z,10.68
2023-01-12T22:26:11.559Z,11.45
2023-01-12T22:28:41.390Z,10.65
2023-01-12T22:31:13.996Z,10.85
2023-01-12T22:34:00.758Z,11.60
2023-01-12T22:36:28.258Z,10.95
2023-01-12T22:38:55.630Z,10.15
2023-01-12T22:41:24.745Z,10.65
2023-01-12T22:43:52.861Z,10.15
2023-01-12T22:46:27.533Z,10.20
2023-01-12T22:48:57.561Z,10.10
2023-01-12T22:51:26.351Z,10.25
2023-01-12T22:53:55.555Z,9.93
2023-01-12T22:56:23.273Z,9.48
2023-01-12T22:58:52.581Z,9.77
2023-01-12T23:01:21.119Z,9.90
2023-01-12T23:03:52.177Z,9.52
2023-01-12T23:06:19.511Z,9.73
2023-01-12T23:08:47.019Z,10.43
2023-01-12T23:11:22.973Z,10.38
2023-01-12T23:13:51.143Z,9.15
2023-01-12T23:16:19.270Z,10.30
2023-01-12T23:18:47.620Z,10.30
2023-01-12T23:21:17.631Z,10.65
2023-01-12T23:23:50.375Z,9.15
2023-01-12T23:26:20.668Z,8.88
2023-01-12T23:28:50.990Z,10.25
2023-01-12T23:31:21.441Z,8.80
2023-01-12T23:33:49.088Z,9.82
2023-01-12T23:36:19.390Z,10.00
2023-01-12T23:38:46.865Z,8.73
2023-01-12T23:41:19.529Z,9.02
2023-01-12T23:43:49.110Z,9.65
2023-01-12T23:46:23.485Z,9.60
2023-01-12T23:48:52.553Z,9.65
2023-01-12T23:51:20.149Z,9.30
2023-01-12T23:53:48.870Z,9.98
2023-01-12T23:56:16.826Z,9.23
2023-01-12T23:58:44.871Z,10.00
